createdAt,value
2022-12-05T00:02:03.211Z,1.80
2022-12-05T00:04:31.182Z,1.90
2022-12-05T00:06:59.124Z,1.80
2022-12-05T00:09:27.035Z,1.90
2022-12-05T00:11:57.652Z,2.00
2022-12-05T00:14:25.809Z,1.70
2022-12-05T00:16:53.833Z,1.80
2022-12-05T00:19:22.635Z,1.80
2022-12-05T00:21:50.472Z,1.80
2022-12-05T00:24:19.541Z,1.80
2022-12-05T00:26:47.452Z,1.80
2022-12-05T00:29:16.690Z,1.90
2022-12-05T00:31:44.590Z,1.80
2022-12-05T00:34:12.521Z,1.90
2022-12-05T00:36:40.452Z,1.90
2022-12-05T00:39:09.476Z,1.80
2022-12-05T00:41:37.513Z,1.80
2022-12-05T00:44:05.699Z,1.90
2022-12-05T00:46:35.637Z,2.00
2022-12-05T00:49:04.521Z,2.00
2022-12-05T00:51:33.583Z,1.90
2022-12-05T00:54:02.956Z,1.80
2022-12-05T00:56:31.551Z,1.90
2022-12-05T00:59:00.194Z,1.80
2022-12-05T01:01:30.116Z,1.80
2022-12-05T01:04:00.704Z,1.70
2022-12-05T01:06:28.941Z,2.00
2022-12-05T01:08:57.208Z,1.90
2022-12-05T01:11:25.516Z,1.80
2022-12-05T01:13:53.499Z,1.80
2022-12-05T01:16:22.428Z,1.80
2022-12-05T01:18:50.472Z,1.70
2022-12-05T01:21:19.815Z,1.70
2022-12-05T01:23:47.775Z,1.70
2022-12-05T01:26:16.715Z,1.80
2022-12-05T01:28:44.934Z,1.80
2022-12-05T01:31:18.037Z,1.70
2022-12-05T01:33:46.115Z,1.80
2022-12-05T01:36:14.151Z,1.80
2022-12-05T01:38:43.803Z,1.90
2022-12-05T01:41:13.707Z,1.90
2022-12-05T01:43:58.748Z,1.80
2022-12-05T01:46:27.259Z,1.80
2022-12-05T01:48:57.108Z,1.70
2022-12-05T01:51:25.104Z,1.80
2022-12-05T01:53:54.417Z,1.80
2022-12-05T01:56:22.301Z,1.80
2022-12-05T01:58:50.205Z,1.70
2022-12-05T02:01:18.291Z,1.60
2022-12-05T02:03:46.547Z,1.70
2022-12-05T02:06:14.709Z,1.70
2022-12-05T02:08:42.782Z,1.60
2022-12-05T02:11:12.024Z,1.70
2022-12-05T02:13:49.546Z,1.70
2022-12-05T02:16:22.034Z,1.70
2022-12-05T02:18:57.488Z,1.80
2022-12-05T02:21:56.730Z,1.90
2022-12-05T02:24:35.643Z,1.90
2022-12-05T02:27:16.726Z,1.90
2022-12-05T02:29:53.503Z,2.00
2022-12-05T02:32:25.423Z,2.00
2022-12-05T02:34:56.168Z,1.80
2022-12-05T02:37:27.440Z,1.80
2022-12-05T02:39:57.966Z,1.80
2022-12-05T02:42:28.777Z,1.80
2022-12-05T02:44:59.006Z,1.80
2022-12-05T02:47:28.408Z,1.80
2022-12-05T02:49:56.595Z,1.80
2022-12-05T02:52:24.796Z,1.90
2022-12-05T02:54:52.928Z,1.90
2022-12-05T02:57:20.841Z,1.80
2022-12-05T02:59:48.748Z,1.80
2022-12-05T03:02:25.640Z,1.80
2022-12-05T03:04:53.693Z,1.70
2022-12-05T03:07:21.854Z,1.80
2022-12-05T03:09:51.914Z,1.90
2022-12-05T03:12:21.170Z,1.90
2022-12-05T03:14:50.302Z,1.90
2022-12-05T03:17:21.748Z,1.80
2022-12-05T03:19:57.532Z,1.90
2022-12-05T03:22:27.576Z,1.90
2022-12-05T03:24:55.692Z,2.00
2022-12-05T03:27:26.644Z,2.00
2022-12-05T03:29:56.969Z,1.90
2022-12-05T03:32:27.609Z,1.90
2022-12-05T03:35:05.072Z,1.90
2022-12-05T03:37:38.207Z,1.90
2022-12-05T03:40:08.535Z,1.80
2022-12-05T03:42:37.280Z,1.80
2022-12-05T03:45:07.549Z,2.10
2022-12-05T03:47:39.658Z,2.10
2022-12-05T03:50:11.737Z,2.20
2022-12-05T03:53:17.560Z,2.90
2022-12-05T03:55:31.388Z,2.60
2022-12-05T03:58:00.158Z,2.30
2022-12-05T04:00:28.180Z,2.20
2022-12-05T04:02:56.973Z,2.10
2022-12-05T04:05:27.864Z,2.10
2022-12-05T04:07:57.528Z,2.00
2022-12-05T04:10:27.374Z,2.10
2022-12-05T04:12:56.102Z,2.30
2022-12-05T04:15:25.712Z,2.10
2022-12-05T04:17:54.782Z,2.10
2022-12-05T04:20:41.155Z,2.10
2022-12-05T04:23:10.498Z,2.10
2022-12-05T04:25:39.887Z,2.00
2022-12-05T04:28:21.523Z,2.10
2022-12-05T04:30:51.180Z,2.10
2022-12-05T04:33:21.200Z,2.20
2022-12-05T04:35:51.939Z,2.20
2022-12-05T04:38:22.629Z,2.10
2022-12-05T04:40:52.359Z,2.10
2022-12-05T04:43:24.420Z,2.10
2022-12-05T04:45:52.337Z,2.10
2022-12-05T04:48:20.347Z,2.20
2022-12-05T04:50:48.313Z,2.00
2022-12-05T04:53:17.296Z,2.00
2022-12-05T04:55:48.073Z,2.10
2022-12-05T04:58:17.136Z,2.20
2022-12-05T05:00:47.754Z,2.20
2022-12-05T05:03:18.358Z,2.20
2022-12-05T05:05:47.225Z,2.10
2022-12-05T05:08:19.180Z,2.20
2022-12-05T05:10:52.924Z,2.20
2022-12-05T05:13:20.834Z,2.20
2022-12-05T05:15:48.737Z,2.20
2022-12-05T05:18:16.689Z,2.10
2022-12-05T05:20:44.601Z,2.20
2022-12-05T05:23:12.509Z,2.10
2022-12-05T05:25:40.375Z,2.10
2022-12-05T05:28:09.618Z,2.10
2022-12-05T05:30:37.665Z,2.10
2022-12-05T05:33:05.808Z,2.20
2022-12-05T05:35:36.762Z,2.40
2022-12-05T05:38:04.673Z,2.20
2022-12-05T05:40:32.606Z,2.20
2022-12-05T05:43:00.521Z,2.30
2022-12-05T05:45:29.751Z,2.40
2022-12-05T05:47:57.827Z,2.30
2022-12-05T05:50:25.680Z,2.30
2022-12-05T05:52:53.636Z,2.20
2022-12-05T05:55:21.499Z,2.20
2022-12-05T05:57:49.382Z,2.30
2022-12-05T06:00:17.876Z,2.20
2022-12-05T06:02:47.249Z,2.10
2022-12-05T06:05:15.213Z,2.10
2022-12-05T06:07:43.267Z,2.10
2022-12-05T06:10:11.214Z,2.10
2022-12-05T06:12:39.057Z,2.10
2022-12-05T06:15:08.683Z,2.30
2022-12-05T06:17:36.565Z,2.20
2022-12-05T06:20:06.724Z,2.30
2022-12-05T06:22:34.897Z,2.20
2022-12-05T06:25:02.802Z,2.30
2022-12-05T06:27:31.323Z,2.30
2022-12-05T06:29:59.576Z,2.20
2022-12-05T06:32:29.026Z,2.20
2022-12-05T06:34:56.949Z,2.30
2022-12-05T06:37:26.190Z,2.30
2022-12-05T06:39:54.175Z,2.40
2022-12-05T06:42:23.036Z,2.50
2022-12-05T06:44:51.008Z,2.40
2022-12-05T06:47:18.993Z,2.50
2022-12-05T06:49:47.225Z,2.40
2022-12-05T06:52:15.160Z,2.40
2022-12-05T06:54:44.632Z,2.40
2022-12-05T06:57:12.696Z,2.50
2022-12-05T06:59:40.704Z,2.40
2022-12-05T07:02:08.593Z,2.30
2022-12-05T07:04:36.615Z,2.40
2022-12-05T07:07:04.623Z,2.40
2022-12-05T07:09:46.511Z,2.40
2022-12-05T07:12:16.590Z,2.60
2022-12-05T07:14:49.336Z,2.60
2022-12-05T07:17:17.998Z,2.60
2022-12-05T07:19:45.971Z,2.70
2022-12-05T07:22:15.921Z,2.60
2022-12-05T07:24:44.598Z,2.60
2022-12-05T07:27:12.638Z,2.70
2022-12-05T07:29:42.014Z,2.80
2022-12-05T07:32:10.251Z,2.80
2022-12-05T07:34:38.801Z,2.90
2022-12-05T07:37:07.426Z,2.80
2022-12-05T07:39:35.500Z,2.80
2022-12-05T07:42:03.484Z,2.90
2022-12-05T07:44:31.596Z,2.90
2022-12-05T07:47:01.132Z,2.90
2022-12-05T07:49:29.232Z,3.00
2022-12-05T07:51:57.151Z,3.00
2022-12-05T07:54:25.187Z,3.00
2022-12-05T07:56:53.378Z,3.10
2022-12-05T07:59:21.793Z,3.10
2022-12-05T08:01:49.969Z,3.10
2022-12-05T08:04:19.685Z,3.10
2022-12-05T08:06:47.774Z,3.20
2022-12-05T08:09:15.820Z,3.20
2022-12-05T08:11:48.213Z,3.20
2022-12-05T08:14:19.213Z,3.20
2022-12-05T08:16:47.329Z,3.20
2022-12-05T08:19:17.122Z,3.20
2022-12-05T08:21:46.520Z,3.20
2022-12-05T08:24:14.695Z,3.10
2022-12-05T08:26:42.643Z,3.20
2022-12-05T08:29:11.632Z,3.40
2022-12-05T08:31:41.354Z,3.30
2022-12-05T08:34:09.399Z,3.20
2022-12-05T08:36:37.465Z,3.20
2022-12-05T08:39:18.533Z,3.10
2022-12-05T08:41:47.757Z,3.10
2022-12-05T08:44:16.401Z,3.10
2022-12-05T08:46:45.084Z,3.20
2022-12-05T08:49:13.229Z,3.20
2022-12-05T08:51:41.594Z,3.20
2022-12-05T08:54:11.033Z,3.30
2022-12-05T08:56:39.672Z,3.20
2022-12-05T08:59:07.924Z,3.30
2022-12-05T09:01:38.795Z,3.30
2022-12-05T09:04:10.006Z,3.40
2022-12-05T09:06:39.306Z,3.50
2022-12-05T09:09:09.120Z,4.10
2022-12-05T09:11:41.006Z,5.20
2022-12-05T09:14:09.111Z,4.90
2022-12-05T09:16:39.236Z,5.20
2022-12-05T09:19:09.692Z,4.50
2022-12-05T09:21:37.716Z,4.20
2022-12-05T09:24:05.962Z,4.00
2022-12-05T09:26:34.018Z,4.10
2022-12-05T09:29:03.457Z,4.00
2022-12-05T09:31:31.598Z,4.10
2022-12-05T09:33:59.730Z,4.20
2022-12-05T09:36:29.086Z,4.20
2022-12-05T09:38:57.341Z,4.20
2022-12-05T09:41:51.803Z,4.20
2022-12-05T09:44:23.249Z,4.20
2022-12-05T09:46:53.877Z,4.30
2022-12-05T09:49:21.919Z,4.30
2022-12-05T09:51:55.033Z,4.30
2022-12-05T09:54:23.405Z,4.30
2022-12-05T09:56:51.761Z,4.40
2022-12-05T09:59:21.427Z,4.50
2022-12-05T10:01:53.094Z,4.50
2022-12-05T10:04:57.025Z,4.60
2022-12-05T10:07:30.327Z,4.70
2022-12-05T10:10:04.112Z,4.70
2022-12-05T10:12:50.914Z,4.80
2022-12-05T10:15:24.536Z,4.90
2022-12-05T10:17:54.607Z,4.90
2022-12-05T10:20:24.199Z,4.90
2022-12-05T10:22:54.116Z,5.00
2022-12-05T10:25:23.478Z,5.10
2022-12-05T10:27:52.974Z,5.10
2022-12-05T10:30:23.021Z,5.10
2022-12-05T10:32:53.603Z,5.10
2022-12-05T10:35:22.881Z,5.10
2022-12-05T10:37:52.537Z,5.10
2022-12-05T10:40:20.720Z,5.00
2022-12-05T10:42:49.093Z,5.00
2022-12-05T10:45:19.443Z,5.00
2022-12-05T10:47:49.061Z,4.90
2022-12-05T10:50:27.825Z,5.00
2022-12-05T10:52:57.028Z,5.00
2022-12-05T10:55:25.033Z,5.00
2022-12-05T10:57:53.788Z,5.00
2022-12-05T11:00:23.543Z,5.10
2022-12-05T11:02:53.642Z,5.00
2022-12-05T11:05:31.078Z,5.00
2022-12-05T11:07:59.216Z,5.10
2022-12-05T11:10:28.768Z,5.00
2022-12-05T11:12:57.566Z,4.90
2022-12-05T11:15:26.463Z,4.80
2022-12-05T11:17:57.595Z,4.90
2022-12-05T11:20:37.842Z,4.90
2022-12-05T11:23:27.867Z,4.80
2022-12-05T11:25:56.065Z,4.80
2022-12-05T11:28:26.310Z,4.90
2022-12-05T11:30:58.527Z,4.90
2022-12-05T11:33:28.654Z,4.90
2022-12-05T11:35:58.408Z,4.80
2022-12-05T11:38:27.647Z,4.80
2022-12-05T11:40:57.973Z,4.80
2022-12-05T11:43:41.141Z,4.90
2022-12-05T11:46:12.313Z,4.80
2022-12-05T11:48:50.094Z,4.80
2022-12-05T11:51:38.511Z,4.80
2022-12-05T11:57:28.625Z,4.70
2022-12-05T12:00:07.569Z,4.70
2022-12-05T12:02:42.245Z,4.60
2022-12-05T12:05:18.142Z,4.70
2022-12-05T12:07:59.774Z,4.70
2022-12-05T12:10:30.527Z,4.60
2022-12-05T12:13:05.924Z,4.70
2022-12-05T12:15:54.636Z,4.70
2022-12-05T12:18:34.484Z,4.70
2022-12-05T12:21:09.266Z,4.80
2022-12-05T12:23:43.507Z,4.80
2022-12-05T12:26:13.292Z,4.80
2022-12-05T12:28:46.130Z,4.80
2022-12-05T12:31:35.667Z,4.80
2022-12-05T12:34:11.837Z,4.70
2022-12-05T12:36:45.374Z,4.70
2022-12-05T12:39:22.949Z,4.70
2022-12-05T12:41:57.868Z,4.60
2022-12-05T12:44:39.464Z,4.60
2022-12-05T12:47:09.857Z,4.50
2022-12-05T12:49:44.960Z,4.50
2022-12-05T12:52:16.098Z,4.50
2022-12-05T12:55:06.013Z,4.50
2022-12-05T12:57:40.005Z,4.40
2022-12-05T13:00:13.757Z,4.40
2022-12-05T13:02:44.698Z,4.40
2022-12-05T13:05:21.002Z,4.40
2022-12-05T13:07:52.039Z,4.30
2022-12-05T13:10:25.171Z,4.40
2022-12-05T13:12:53.109Z,4.40
2022-12-05T13:15:23.752Z,4.40
2022-12-05T13:17:51.740Z,4.50
2022-12-05T13:20:21.109Z,4.60
2022-12-05T13:22:50.482Z,4.60
2022-12-05T13:25:19.336Z,4.40
2022-12-05T13:27:56.350Z,4.40
2022-12-05T13:30:28.025Z,4.40
2022-12-05T13:32:57.291Z,4.40
2022-12-05T13:35:47.027Z,4.40
2022-12-05T13:38:40.318Z,4.40
2022-12-05T13:41:25.899Z,4.20
2022-12-05T13:44:05.713Z,4.30
2022-12-05T13:46:35.246Z,4.30
2022-12-05T13:49:07.043Z,4.30
2022-12-05T13:51:37.021Z,4.30
2022-12-05T13:54:08.431Z,4.30
2022-12-05T13:56:50.819Z,4.30
2022-12-05T13:59:56.594Z,4.20
2022-12-05T14:02:53.452Z,4.20
2022-12-05T14:05:46.950Z,4.10
2022-12-05T14:08:51.412Z,4.10
2022-12-05T14:11:20.859Z,4.20
2022-12-05T14:13:49.011Z,4.20
2022-12-05T14:16:47.039Z,4.20
2022-12-05T14:20:05.099Z,4.10
2022-12-05T14:23:05.792Z,4.10
2022-12-05T14:25:53.169Z,4.20
2022-12-05T14:28:37.526Z,4.10
2022-12-05T14:31:15.093Z,4.00
2022-12-05T14:33:43.042Z,4.00
2022-12-05T14:36:15.721Z,4.00
2022-12-05T14:38:43.627Z,3.90
2022-12-05T14:41:15.945Z,3.90
2022-12-05T14:43:45.186Z,3.80
2022-12-05T14:46:17.843Z,3.70
2022-12-05T14:48:48.348Z,3.70
2022-12-05T14:51:44.548Z,3.70
2022-12-05T14:54:13.581Z,3.80
2022-12-05T14:56:42.416Z,3.70
2022-12-05T14:59:19.727Z,3.70
2022-12-05T15:01:50.950Z,3.70
2022-12-05T15:04:20.162Z,3.70
2022-12-05T15:06:50.100Z,3.60
2022-12-05T15:09:55.719Z,3.50
2022-12-05T15:12:26.329Z,3.50
2022-12-05T15:15:08.084Z,3.40
2022-12-05T15:17:39.995Z,3.40
2022-12-05T15:20:15.312Z,3.40
2022-12-05T15:22:43.567Z,3.30
2022-12-05T15:25:25.324Z,3.30
2022-12-05T15:27:57.603Z,3.20
2022-12-05T15:30:27.181Z,3.30
2022-12-05T15:32:59.385Z,3.30
2022-12-05T15:35:28.570Z,3.20
2022-12-05T15:37:57.491Z,3.30
2022-12-05T15:40:26.145Z,3.20
2022-12-05T15:42:54.740Z,3.20
2022-12-05T15:45:24.734Z,3.20
2022-12-05T15:47:56.789Z,3.20
2022-12-05T15:50:29.719Z,3.30
2022-12-05T15:52:58.919Z,3.30
2022-12-05T15:55:29.322Z,3.40
2022-12-05T15:58:00.497Z,3.40
2022-12-05T16:00:28.365Z,3.30
2022-12-05T16:02:59.629Z,3.40
2022-12-05T16:05:29.736Z,3.30
2022-12-05T16:07:57.778Z,3.20
2022-12-05T16:10:29.594Z,3.20
2022-12-05T16:12:57.905Z,3.10
2022-12-05T16:15:26.768Z,3.10
2022-12-05T16:17:56.079Z,3.20
2022-12-05T16:20:31.859Z,3.00
2022-12-05T16:23:01.547Z,3.00
2022-12-05T16:25:30.093Z,2.90
2022-12-05T16:27:59.215Z,2.90
2022-12-05T16:30:27.568Z,2.80
2022-12-05T16:33:05.706Z,2.90
2022-12-05T16:35:36.695Z,3.00
2022-12-05T16:38:11.240Z,2.90
2022-12-05T16:40:39.436Z,2.90
2022-12-05T16:43:08.198Z,2.80
2022-12-05T16:45:40.272Z,2.80
2022-12-05T16:48:16.358Z,2.70
2022-12-05T16:50:45.600Z,2.60
2022-12-05T16:53:37.706Z,2.80
2022-12-05T16:56:05.933Z,2.70
2022-12-05T16:58:33.906Z,2.70
2022-12-05T17:01:03.051Z,2.70
2022-12-05T17:07:20.182Z,2.50
2022-12-05T17:09:48.532Z,2.60
2022-12-05T17:12:18.986Z,2.70
2022-12-05T17:14:51.395Z,2.70
2022-12-05T17:17:19.231Z,2.70
2022-12-05T17:19:47.070Z,2.60
2022-12-05T17:22:15.358Z,2.70
2022-12-05T17:24:44.565Z,2.70
2022-12-05T17:27:12.671Z,2.80
2022-12-05T17:29:40.536Z,2.70
2022-12-05T17:32:08.395Z,2.80
2022-12-05T17:34:36.318Z,2.90
2022-12-05T17:37:04.161Z,2.90
2022-12-05T17:39:32.041Z,2.90
2022-12-05T17:42:01.251Z,2.80
2022-12-05T17:44:29.323Z,2.90
2022-12-05T17:46:57.219Z,2.80
2022-12-05T17:49:25.203Z,2.80
2022-12-05T17:52:20.582Z,3.00
2022-12-05T17:54:41.888Z,2.90
2022-12-05T17:57:11.103Z,2.70
2022-12-05T17:59:39.018Z,2.60
2022-12-05T18:02:06.944Z,2.60
2022-12-05T18:04:34.888Z,2.50
2022-12-05T18:07:02.753Z,2.40
2022-12-05T18:09:31.016Z,2.40
2022-12-05T18:11:58.888Z,2.30
2022-12-05T18:14:28.512Z,2.30
2022-12-05T18:16:56.544Z,2.30
2022-12-05T18:19:24.517Z,2.30
2022-12-05T18:21:52.755Z,2.40
2022-12-05T18:24:20.678Z,2.50
2022-12-05T18:26:48.567Z,2.50
2022-12-05T18:29:16.506Z,2.50
2022-12-05T18:31:45.920Z,2.50
2022-12-05T18:34:13.970Z,2.50
2022-12-05T18:36:42.009Z,2.40
2022-12-05T18:39:12.182Z,2.50
2022-12-05T18:41:40.085Z,2.50
2022-12-05T18:44:09.820Z,2.70
2022-12-05T18:46:38.112Z,2.80
2022-12-05T18:49:07.926Z,2.90
2022-12-05T18:51:35.796Z,2.90
2022-12-05T18:54:04.001Z,2.90
2022-12-05T18:56:34.547Z,2.70
2022-12-05T18:59:03.870Z,2.60
2022-12-05T19:01:32.172Z,2.70
2022-12-05T19:04:00.773Z,2.60
2022-12-05T19:06:32.046Z,2.60
2022-12-05T19:09:00.842Z,2.60
2022-12-05T19:11:29.260Z,2.50
2022-12-05T19:13:57.268Z,2.60
2022-12-05T19:16:25.280Z,2.80
2022-12-05T19:18:54.249Z,2.80
2022-12-05T19:21:22.178Z,2.90
2022-12-05T19:23:51.409Z,2.90
2022-12-05T19:26:19.315Z,2.90
2022-12-05T19:28:47.193Z,2.70
2022-12-05T19:31:17.949Z,2.70
2022-12-05T19:33:47.170Z,2.60
2022-12-05T19:36:22.790Z,2.70
2022-12-05T19:38:53.466Z,2.80
2022-12-05T19:41:22.668Z,2.80
2022-12-05T19:43:50.791Z,2.70
2022-12-05T19:46:20.050Z,2.40
2022-12-05T19:48:48.211Z,2.40
2022-12-05T19:51:16.365Z,2.50
2022-12-05T19:53:44.948Z,2.40
2022-12-05T19:56:15.483Z,2.40
2022-12-05T19:58:43.481Z,2.30
2022-12-05T20:01:12.312Z,2.50
2022-12-05T20:03:40.600Z,2.40
2022-12-05T20:06:09.195Z,2.50
2022-12-05T20:08:37.311Z,2.40
2022-12-05T20:11:06.390Z,2.40
2022-12-05T20:13:52.279Z,2.40
2022-12-05T20:16:21.492Z,2.40
2022-12-05T20:18:49.803Z,2.30
2022-12-05T20:21:19.014Z,2.30
2022-12-05T20:23:47.207Z,2.30
2022-12-05T20:26:16.089Z,2.40
2022-12-05T20:28:45.531Z,2.30
2022-12-05T20:31:14.427Z,2.20
2022-12-05T20:33:42.502Z,2.20
2022-12-05T20:36:11.903Z,2.30
2022-12-05T20:38:40.127Z,2.40
2022-12-05T20:41:11.115Z,2.20
2022-12-05T20:43:39.210Z,2.30
2022-12-05T20:46:09.920Z,2.30
2022-12-05T20:48:37.906Z,2.40
2022-12-05T20:51:06.398Z,2.30
2022-12-05T20:53:35.198Z,2.20
2022-12-05T20:56:07.014Z,2.10
2022-12-05T20:58:34.895Z,2.10
2022-12-05T21:01:03.356Z,2.10
2022-12-05T21:03:32.888Z,2.20
2022-12-05T21:06:00.870Z,2.20
2022-12-05T21:08:28.915Z,2.10
2022-12-05T21:10:56.853Z,2.20
2022-12-05T21:13:24.781Z,2.20
2022-12-05T21:15:52.737Z,2.20
2022-12-05T21:18:20.677Z,2.20
2022-12-05T21:20:58.667Z,2.20
2022-12-05T21:23:26.820Z,2.30
2022-12-05T21:25:54.985Z,2.30
2022-12-05T21:28:23.114Z,2.30
2022-12-05T21:30:51.063Z,2.30
2022-12-05T21:33:19.200Z,2.30
2022-12-05T21:35:54.939Z,2.40
2022-12-05T21:38:24.215Z,2.40
2022-12-05T21:40:52.109Z,2.40
2022-12-05T21:43:20.563Z,2.50
2022-12-05T21:45:53.143Z,2.50
2022-12-05T21:48:21.238Z,2.40
2022-12-05T21:50:49.250Z,2.40
2022-12-05T21:53:17.212Z,2.40
2022-12-05T21:55:46.596Z,2.40
2022-12-05T21:58:14.690Z,2.30
2022-12-05T22:00:43.039Z,2.10
2022-12-05T22:03:14.204Z,2.30
2022-12-05T22:05:42.301Z,2.20
2022-12-05T22:08:10.259Z,2.10
2022-12-05T22:10:38.374Z,2.20
2022-12-05T22:13:07.693Z,2.20
2022-12-05T22:15:35.703Z,2.10
2022-12-05T22:18:03.672Z,2.00
2022-12-05T22:20:31.603Z,2.10
2022-12-05T22:22:59.754Z,2.10
2022-12-05T22:25:27.725Z,2.10
2022-12-05T22:27:56.377Z,2.30
2022-12-05T22:30:25.705Z,2.10
2022-12-05T22:32:54.724Z,2.00
2022-12-05T22:35:22.735Z,2.00
2022-12-05T22:37:50.664Z,2.10
2022-12-05T22:40:18.689Z,2.20
2022-12-05T22:42:46.808Z,2.10
2022-12-05T22:45:14.817Z,2.10
2022-12-05T22:47:44.134Z,2.00
2022-12-05T22:50:13.107Z,2.00
2022-12-05T22:52:41.074Z,2.00
2022-12-05T22:55:10.113Z,1.90
2022-12-05T22:57:38.070Z,1.90
2022-12-05T23:00:07.371Z,2.70
2022-12-05T23:02:35.500Z,3.40
2022-12-05T23:05:05.305Z,3.10
2022-12-05T23:07:33.425Z,2.60
2022-12-05T23:10:01.847Z,2.30
2022-12-05T23:12:30.517Z,2.20
2022-12-05T23:15:09.142Z,2.10
2022-12-05T23:17:37.293Z,2.00
2022-12-05T23:20:08.127Z,2.00
2022-12-05T23:22:36.205Z,2.00
2022-12-05T23:25:04.346Z,2.00
2022-12-05T23:27:32.380Z,2.00
2022-12-05T23:30:00.782Z,1.90
2022-12-05T23:32:28.989Z,1.90
2022-12-05T23:34:57.086Z,1.90
2022-12-05T23:37:26.523Z,2.10
2022-12-05T23:39:54.561Z,1.90
2022-12-05T23:42:23.326Z,1.90
2022-12-05T23:44:51.375Z,1.90
2022-12-05T23:47:19.533Z,1.90
2022-12-05T23:49:47.659Z,1.90
2022-12-05T23:52:15.720Z,1.80
2022-12-05T23:54:45.709Z,1.80
2022-12-05T23:57:17.518Z,1.80
2022-12-05T23:59:45.796Z,1.90
